Fredericton, New Brunswick

12:12 PM ADT on September 02, 2014 (GMT -0300)
Fredericton | Change Station
CLOSE
Current Station
Airport
Location: Fredericton,
Elevation: 66 ft
Nearby Weather Stations

Elev 66 ft 45.87 °N, 66.54 °W | Updated 12 minutes ago

Overcast
Overcast
68 °F
Feels Like 68 °F
N
8
Wind Variable Wind from SSE

Today is forecast to be nearly the same temperature as yesterday.

Today
High -- | Low -- °F
--% Chance of Precip.
Yesterday
High -- | Low -- °F
Precip. -- in
6:48 AM 8:02 PM
First Quarter, 52% visible
Pressure 29.93 in
Visibility 9.0 miles
Clouds Overcast 600 ft
Dew Point 66 °F
Humidity 94%
Rainfall 0.00 in
Snow Depth Not available.
UV 2 out of 12
Pollen Not available.
Air Quality Not available.
Flu Activity Not available.
METAR CYFC 021500Z AUTO 15007KT 100V220 9SM OVC006 20/19 A2993 RMK SLP135 DENSITY ALT 600FT

More Conditions Fewer Conditions

Pressure 29.93 in
Visibility 9.0 miles
Clouds Overcast 600 ft
Dew Point 66 °F
Humidity 94%
Rainfall 0.00 in
Snow Depth Not available.
UV 2 out of 12
Pollen Not available.
Air Quality Not available.
Flu Activity Not available.
METAR CYFC 021500Z AUTO 15007KT 100V220 9SM OVC006 20/19 A2993 RMK SLP135 DENSITY ALT 600FT

More Conditions Fewer Conditions

10-Day Weather Forecast

Almanac

Astronomy

Sep. 02, 2014 Rise Set
Actual Time 6:48 AM ADT 8:02 PM ADT
Civil Twilight 6:17 AM ADT 8:33 PM ADT
Nautical Twilight 5:40 AM ADT 9:10 PM ADT
Astronomical Twilight 5:00 AM ADT 9:49 PM ADT
Moon 2:51 PM ADT No Moon Set
Length of Visible Light 14h 15m
Length of Day
13h 14m
Tomorrow will be 3m 8s shorter.
First Quarter, 52% of the Moon is Illuminated
Today
First Quarter
Sep 8
Full
Sep 15
Last Quarter
Sep 24
New
Oct 1
First Quarter

Today's Extremes

Country Highs Country Lows

Community

WunderPhotos

Upload Photos

1,749,690 photos uploaded!

WunderBlogs® & News

Nearby

Snow Depth

Not available.

Earthquake Activity

City Distance Mag. Time & Date
No recent earthquake activity has been reported nearby.
Minimum magnitude displayed is 2.5.

Coastal Water Temperatures

Place Temperature
No Stations Reporting

Nearby Weather Stations